Main page
METAR-TAF:

METAR-TAF

Airports :

Lublin Airport

Lublin, Poland

latitude: 51-13-55N, longitude: 22-41-25E, elevation: 203 m

Current weather observation

The report was made 27 minutes ago, at 19:00 UTC
Wind 10 kt from the Southwest
Temperature 5°C
Humidity 93%
Pressure 1006 hPa
Visibility 10 km or more
no clouds below 1500 m and no cumulonimbus

METAR: EPLB 091900Z 22010KT CAVOK 05/04 Q1006

Time: 20:27 (19:27 UTC)

Forecast

The report was made 1 hour and 57 minutes ago, at 17:30 UTC
Forecast valid from 09 at 18 UTC to 10 at 03 UTC
Wind 7 kt from the Southwest
Visibility 10 km or more
no clouds below 1500 m and no cumulonimbus
Probability 40% :
Temporary
from 09 at 22 UTC to 10 at 03 UTC
Visibility: 4500 m
mist

TAF: EPLB 091730Z 0918/1003 22007KT CAVOK PROB40 TEMPO 0922/1003 4500 BR

Weather observations and forecasts of more than 4000 airports (METAR and TAF reports).

The available stations are represented by yellow and red dots on the map.

Hover mouse over dot to see the name of the station.

Then click to see weather observations and forecasts.

To change the map : click on the green buttons with a black cross to zoom in, on the green button with a dash to zoom out, or on the green arrows for adjacent maps.


METAR-TAF: